sensor_id;sensor_type;location;lat;lon;timestamp;temperature;humidity
72128;DHT22;60000;51.030;7.024;2023-04-24T00:01:34;11.74;71.70
72128;DHT22;60000;51.030;7.024;2023-04-24T00:04:02;11.73;71.65
72128;DHT22;60000;51.030;7.024;2023-04-24T00:06:29;11.73;71.75
72128;DHT22;60000;51.030;7.024;2023-04-24T00:08:58;11.68;71.91
72128;DHT22;60000;51.030;7.024;2023-04-24T00:11:24;11.70;72.10
72128;DHT22;60000;51.030;7.024;2023-04-24T00:13:49;11.67;72.30
72128;DHT22;60000;51.030;7.024;2023-04-24T00:16:15;11.63;72.50
72128;DHT22;60000;51.030;7.024;2023-04-24T00:18:40;11.60;72.75
72128;DHT22;60000;51.030;7.024;2023-04-24T00:21:06;11.60;73.27
72128;DHT22;60000;51.030;7.024;2023-04-24T00:23:32;11.57;73.40
72128;DHT22;60000;51.030;7.024;2023-04-24T00:25:57;11.57;73.43
72128;DHT22;60000;51.030;7.024;2023-04-24T00:28:23;11.57;73.83
72128;DHT22;60000;51.030;7.024;2023-04-24T00:30:48;11.58;73.79
72128;DHT22;60000;51.030;7.024;2023-04-24T00:33:13;11.57;73.39
72128;DHT22;60000;51.030;7.024;2023-04-24T00:35:39;11.61;73.43
72128;DHT22;60000;51.030;7.024;2023-04-24T00:38:05;11.58;73.71
72128;DHT22;60000;51.030;7.024;2023-04-24T00:40:30;11.57;73.33
72128;DHT22;60000;51.030;7.024;2023-04-24T00:42:55;11.63;72.98
72128;DHT22;60000;51.030;7.024;2023-04-24T00:45:21;11.60;72.86
72128;DHT22;60000;51.030;7.024;2023-04-24T00:47:48;11.57;72.52
72128;DHT22;60000;51.030;7.024;2023-04-24T00:50:15;11.61;71.71
72128;DHT22;60000;51.030;7.024;2023-04-24T00:52:40;11.66;71.28
72128;DHT22;60000;51.030;7.024;2023-04-24T00:55:06;11.66;70.75
72128;DHT22;60000;51.030;7.024;2023-04-24T00:57:32;11.63;70.95
72128;DHT22;60000;51.030;7.024;2023-04-24T00:59:58;11.63;70.27
72128;DHT22;60000;51.030;7.024;2023-04-24T01:02:23;11.66;70.26
72128;DHT22;60000;51.030;7.024;2023-04-24T01:04:50;11.67;70.02
72128;DHT22;60000;51.030;7.024;2023-04-24T01:07:19;11.67;69.96
72128;DHT22;60000;51.030;7.024;2023-04-24T01:09:47;11.66;70.39
72128;DHT22;60000;51.030;7.024;2023-04-24T01:12:15;11.58;70.57
72128;DHT22;60000;51.030;7.024;2023-04-24T01:14:40;11.63;70.33
72128;DHT22;60000;51.030;7.024;2023-04-24T01:17:06;11.60;70.66
72128;DHT22;60000;51.030;7.024;2023-04-24T01:19:32;11.57;70.27
72128;DHT22;60000;51.030;7.024;2023-04-24T01:21:58;11.56;70.65
72128;DHT22;60000;51.030;7.024;2023-04-24T01:24:27;11.56;69.61
72128;DHT22;60000;51.030;7.024;2023-04-24T01:26:52;11.53;69.77
72128;DHT22;60000;51.030;7.024;2023-04-24T01:29:18;11.50;69.13
72128;DHT22;60000;51.030;7.024;2023-04-24T01:31:43;11.47;69.42
72128;DHT22;60000;51.030;7.024;2023-04-24T01:34:09;11.47;68.81
72128;DHT22;60000;51.030;7.024;2023-04-24T01:36:35;11.43;68.56
72128;DHT22;60000;51.030;7.024;2023-04-24T01:39:01;11.38;67.59
72128;DHT22;60000;51.030;7.024;2023-04-24T01:41:28;11.33;67.55
72128;DHT22;60000;51.030;7.024;2023-04-24T01:43:53;11.31;67.76
72128;DHT22;60000;51.030;7.024;2023-04-24T01:46:18;11.29;67.39
72128;DHT22;60000;51.030;7.024;2023-04-24T01:48:45;11.27;67.47
72128;DHT22;60000;51.030;7.024;2023-04-24T01:51:11;11.24;67.68
72128;DHT22;60000;51.030;7.024;2023-04-24T01:53:36;11.19;68.14
72128;DHT22;60000;51.030;7.024;2023-04-24T01:56:02;11.13;68.65
72128;DHT22;60000;51.030;7.024;2023-04-24T01:58:27;11.06;68.65
72128;DHT22;60000;51.030;7.024;2023-04-24T02:00:56;10.98;69.05
72128;DHT22;60000;51.030;7.024;2023-04-24T02:03:21;10.89;69.02
72128;DHT22;60000;51.030;7.024;2023-04-24T02:05:47;10.85;69.09
72128;DHT22;60000;51.030;7.024;2023-04-24T02:08:12;10.79;68.86
72128;DHT22;60000;51.030;7.024;2023-04-24T02:10:37;10.73;68.84
72128;DHT22;60000;51.030;7.024;2023-04-24T02:13:02;10.64;68.81
72128;DHT22;60000;51.030;7.024;2023-04-24T02:15:28;10.51;68.95
72128;DHT22;60000;51.030;7.024;2023-04-24T02:17:53;10.47;69.17
72128;DHT22;60000;51.030;7.024;2023-04-24T02:20:18;10.36;69.61
72128;DHT22;60000;51.030;7.024;2023-04-24T02:22:44;10.24;70.15
72128;DHT22;60000;51.030;7.024;2023-04-24T02:25:09;10.20;70.42
72128;DHT22;60000;51.030;7.024;2023-04-24T02:27:34;10.10;70.89
72128;DHT22;60000;51.030;7.024;2023-04-24T02:30:00;10.04;71.11
72128;DHT22;60000;51.030;7.024;2023-04-24T02:32:25;9.97;71.54
72128;DHT22;60000;51.030;7.024;2023-04-24T02:34:51;9.87;71.86
72128;DHT22;60000;51.030;7.024;2023-04-24T02:37:16;9.80;72.32
72128;DHT22;60000;51.030;7.024;2023-04-24T02:39:41;9.75;72.62
72128;DHT22;60000;51.030;7.024;2023-04-24T02:42:07;9.68;72.87
72128;DHT22;60000;51.030;7.024;2023-04-24T02:44:33;9.65;72.99
72128;DHT22;60000;51.030;7.024;2023-04-24T02:46:58;9.63;73.35
72128;DHT22;60000;51.030;7.024;2023-04-24T02:49:23;9.59;73.34
72128;DHT22;60000;51.030;7.024;2023-04-24T02:51:49;9.59;73.51
72128;DHT22;60000;51.030;7.024;2023-04-24T02:54:14;9.56;73.72
72128;DHT22;60000;51.030;7.024;2023-04-24T02:56:40;9.55;73.65
72128;DHT22;60000;51.030;7.024;2023-04-24T02:59:05;9.60;73.58
72128;DHT22;60000;51.030;7.024;2023-04-24T03:01:30;9.59;73.73
72128;DHT22;60000;51.030;7.024;2023-04-24T03:03:56;9.63;73.53
72128;DHT22;60000;51.030;7.024;2023-04-24T03:06:21;9.68;73.72
72128;DHT22;60000;51.030;7.024;2023-04-24T03:08:47;9.68;73.56
72128;DHT22;60000;51.030;7.024;2023-04-24T03:11:13;9.72;73.62
72128;DHT22;60000;51.030;7.024;2023-04-24T03:13:38;9.73;73.49
72128;DHT22;60000;51.030;7.024;2023-04-24T03:16:03;9.73;73.46
72128;DHT22;60000;51.030;7.024;2023-04-24T03:18:29;9.76;73.28
72128;DHT22;60000;51.030;7.024;2023-04-24T03:20:55;9.79;73.26
72128;DHT22;60000;51.030;7.024;2023-04-24T03:23:20;9.78;73.42
72128;DHT22;60000;51.030;7.024;2023-04-24T03:25:53;9.79;73.37
72128;DHT22;60000;51.030;7.024;2023-04-24T03:28:20;9.82;73.25
72128;DHT22;60000;51.030;7.024;2023-04-24T03:30:45;9.82;73.23
72128;DHT22;60000;51.030;7.024;2023-04-24T03:33:10;9.80;73.26
72128;DHT22;60000;51.030;7.024;2023-04-24T03:35:36;9.82;72.84
72128;DHT22;60000;51.030;7.024;2023-04-24T03:38:01;9.85;72.93
72128;DHT22;60000;51.030;7.024;2023-04-24T03:40:26;9.82;72.86
72128;DHT22;60000;51.030;7.024;2023-04-24T03:42:54;9.82;73.05
72128;DHT22;60000;51.030;7.024;2023-04-24T03:45:19;9.79;72.80
72128;DHT22;60000;51.030;7.024;2023-04-24T03:47:45;9.82;72.73
72128;DHT22;60000;51.030;7.024;2023-04-24T03:50:10;9.79;72.56
72128;DHT22;60000;51.030;7.024;2023-04-24T03:52:35;9.75;72.68
72128;DHT22;60000;51.030;7.024;2023-04-24T03:55:01;9.75;72.85
72128;DHT22;60000;51.030;7.024;2023-04-24T03:57:26;9.73;72.96
72128;DHT22;60000;51.030;7.024;2023-04-24T03:59:52;9.72;73.08
72128;DHT22;60000;51.030;7.024;2023-04-24T04:02:18;9.72;73.17
72128;DHT22;60000;51.030;7.024;2023-04-24T04:04:43;9.69;73.28
72128;DHT22;60000;51.030;7.024;2023-04-24T04:07:09;9.69;73.10
72128;DHT22;60000;51.030;7.024;2023-04-24T04:09:34;9.68;72.98
72128;DHT22;60000;51.030;7.024;2023-04-24T04:12:00;9.66;73.02
72128;DHT22;60000;51.030;7.024;2023-04-24T04:14:26;9.68;72.98
72128;DHT22;60000;51.030;7.024;2023-04-24T04:16:51;9.65;73.03
72128;DHT22;60000;51.030;7.024;2023-04-24T04:19:16;9.66;72.46
72128;DHT22;60000;51.030;7.024;2023-04-24T04:21:42;9.65;72.71
72128;DHT22;60000;51.030;7.024;2023-04-24T04:24:07;9.65;72.63
72128;DHT22;60000;51.030;7.024;2023-04-24T04:26:32;9.63;72.73
72128;DHT22;60000;51.030;7.024;2023-04-24T04:28:58;9.63;72.23
72128;DHT22;60000;51.030;7.024;2023-04-24T04:31:25;9.66;72.38
72128;DHT22;60000;51.030;7.024;2023-04-24T04:33:51;9.65;72.48
72128;DHT22;60000;51.030;7.024;2023-04-24T04:36:16;9.63;72.47
72128;DHT22;60000;51.030;7.024;2023-04-24T04:38:42;9.63;72.72
72128;DHT22;60000;51.030;7.024;2023-04-24T04:41:08;9.63;72.62
72128;DHT22;60000;51.030;7.024;2023-04-24T04:43:33;9.63;72.76
72128;DHT22;60000;51.030;7.024;2023-04-24T04:45:59;9.65;72.86
72128;DHT22;60000;51.030;7.024;2023-04-24T04:48:26;9.65;73.02
72128;DHT22;60000;51.030;7.024;2023-04-24T04:50:52;9.62;72.90
72128;DHT22;60000;51.030;7.024;2023-04-24T04:53:17;9.62;73.15
72128;DHT22;60000;51.030;7.024;2023-04-24T04:55:43;9.65;73.01
72128;DHT22;60000;51.030;7.024;2023-04-24T04:58:08;9.62;73.24
72128;DHT22;60000;51.030;7.024;2023-04-24T05:00:33;9.63;73.09
72128;DHT22;60000;51.030;7.024;2023-04-24T05:03:01;9.63;73.26
72128;DHT22;60000;51.030;7.024;2023-04-24T05:05:26;9.63;73.31
72128;DHT22;60000;51.030;7.024;2023-04-24T05:07:52;9.65;73.43
72128;DHT22;60000;51.030;7.024;2023-04-24T05:10:17;9.68;73.43
72128;DHT22;60000;51.030;7.024;2023-04-24T05:12:42;9.66;73.56
72128;DHT22;60000;51.030;7.024;2023-04-24T05:15:08;9.66;73.30
72128;DHT22;60000;51.030;7.024;2023-04-24T05:17:33;9.62;73.35
72128;DHT22;60000;51.030;7.024;2023-04-24T05:19:59;9.63;73.50
72128;DHT22;60000;51.030;7.024;2023-04-24T05:22:24;9.65;73.44
72128;DHT22;60000;51.030;7.024;2023-04-24T05:24:49;9.60;73.67
72128;DHT22;60000;51.030;7.024;2023-04-24T05:27:15;9.63;73.44
72128;DHT22;60000;51.030;7.024;2023-04-24T05:29:40;9.63;73.28
72128;DHT22;60000;51.030;7.024;2023-04-24T05:32:06;9.66;73.46
72128;DHT22;60000;51.030;7.024;2023-04-24T05:34:31;9.65;73.66
72128;DHT22;60000;51.030;7.024;2023-04-24T05:36:57;9.65;73.81
72128;DHT22;60000;51.030;7.024;2023-04-24T05:39:22;9.63;74.67
72128;DHT22;60000;51.030;7.024;2023-04-24T05:41:50;9.63;74.58
72128;DHT22;60000;51.030;7.024;2023-04-24T05:44:15;9.63;75.36
72128;DHT22;60000;51.030;7.024;2023-04-24T05:46:40;9.62;75.98
72128;DHT22;60000;51.030;7.024;2023-04-24T05:49:06;9.58;76.64
72128;DHT22;60000;51.030;7.024;2023-04-24T05:51:31;9.52;76.43
72128;DHT22;60000;51.030;7.024;2023-04-24T05:53:56;9.49;77.10
72128;DHT22;60000;51.030;7.024;2023-04-24T05:56:22;9.48;77.88
72128;DHT22;60000;51.030;7.024;2023-04-24T05:58:48;9.41;77.54
72128;DHT22;60000;51.030;7.024;2023-04-24T06:01:13;9.34;77.70
72128;DHT22;60000;51.030;7.024;2023-04-24T06:03:41;9.32;78.12
72128;DHT22;60000;51.030;7.024;2023-04-24T06:06:07;9.31;77.77
72128;DHT22;60000;51.030;7.024;2023-04-24T06:08:33;9.32;78.18
72128;DHT22;60000;51.030;7.024;2023-04-24T06:10:59;9.31;78.21
72128;DHT22;60000;51.030;7.024;2023-04-24T06:13:24;9.35;78.22
72128;DHT22;60000;51.030;7.024;2023-04-24T06:15:50;9.34;78.11
72128;DHT22;60000;51.030;7.024;2023-04-24T06:18:15;9.34;78.62
72128;DHT22;60000;51.030;7.024;2023-04-24T06:20:41;9.32;78.46
72128;DHT22;60000;51.030;7.024;2023-04-24T06:23:06;9.30;78.90
72128;DHT22;60000;51.030;7.024;2023-04-24T06:25:32;9.27;78.67
72128;DHT22;60000;51.030;7.024;2023-04-24T06:27:57;9.18;79.56
72128;DHT22;60000;51.030;7.024;2023-04-24T06:30:23;9.12;79.54
72128;DHT22;60000;51.030;7.024;2023-04-24T06:32:48;9.14;80.29
72128;DHT22;60000;51.030;7.024;2023-04-24T06:35:14;9.10;79.65
72128;DHT22;60000;51.030;7.024;2023-04-24T06:37:41;9.11;79.16
72128;DHT22;60000;51.030;7.024;2023-04-24T06:40:07;9.07;79.67
72128;DHT22;60000;51.030;7.024;2023-04-24T06:42:33;9.10;78.88
72128;DHT22;60000;51.030;7.024;2023-04-24T06:45:00;9.05;79.50
72128;DHT22;60000;51.030;7.024;2023-04-24T06:47:25;9.03;79.61
72128;DHT22;60000;51.030;7.024;2023-04-24T06:49:50;9.03;80.03
72128;DHT22;60000;51.030;7.024;2023-04-24T06:52:17;9.04;80.14
72128;DHT22;60000;51.030;7.024;2023-04-24T06:54:43;9.00;80.53
72128;DHT22;60000;51.030;7.024;2023-04-24T06:57:08;9.00;80.90
72128;DHT22;60000;51.030;7.024;2023-04-24T06:59:34;8.97;81.26
72128;DHT22;60000;51.030;7.024;2023-04-24T07:01:59;8.90;81.33
72128;DHT22;60000;51.030;7.024;2023-04-24T07:04:25;8.88;82.00
72128;DHT22;60000;51.030;7.024;2023-04-24T07:06:50;8.85;82.17
72128;DHT22;60000;51.030;7.024;2023-04-24T07:09:16;8.85;82.04
72128;DHT22;60000;51.030;7.024;2023-04-24T07:11:43;8.81;82.67
72128;DHT22;60000;51.030;7.024;2023-04-24T07:14:09;8.81;82.97
72128;DHT22;60000;51.030;7.024;2023-04-24T07:16:35;8.79;82.77
72128;DHT22;60000;51.030;7.024;2023-04-24T07:19:00;8.76;83.09
72128;DHT22;60000;51.030;7.024;2023-04-24T07:21:26;8.69;82.88
72128;DHT22;60000;51.030;7.024;2023-04-24T07:23:52;8.64;83.50
72128;DHT22;60000;51.030;7.024;2023-04-24T07:26:18;8.63;84.15
72128;DHT22;60000;51.030;7.024;2023-04-24T07:28:43;8.62;84.53
72128;DHT22;60000;51.030;7.024;2023-04-24T07:31:09;8.63;85.30
72128;DHT22;60000;51.030;7.024;2023-04-24T07:33:35;8.63;85.78
72128;DHT22;60000;51.030;7.024;2023-04-24T07:36:01;8.64;86.22
72128;DHT22;60000;51.030;7.024;2023-04-24T07:38:26;8.60;86.50
72128;DHT22;60000;51.030;7.024;2023-04-24T07:40:54;8.63;86.67
72128;DHT22;60000;51.030;7.024;2023-04-24T07:43:20;8.52;87.06
72128;DHT22;60000;51.030;7.024;2023-04-24T07:45:46;8.52;87.10
72128;DHT22;60000;51.030;7.024;2023-04-24T07:48:11;8.53;85.93
72128;DHT22;60000;51.030;7.024;2023-04-24T07:50:39;8.52;85.60
72128;DHT22;60000;51.030;7.024;2023-04-24T07:53:05;8.49;86.28
72128;DHT22;60000;51.030;7.024;2023-04-24T07:55:30;8.46;86.23
72128;DHT22;60000;51.030;7.024;2023-04-24T07:57:56;8.41;86.33
72128;DHT22;60000;51.030;7.024;2023-04-24T08:00:21;8.38;85.35
72128;DHT22;60000;51.030;7.024;2023-04-24T08:02:46;8.33;85.96
72128;DHT22;60000;51.030;7.024;2023-04-24T08:05:12;8.22;85.89
72128;DHT22;60000;51.030;7.024;2023-04-24T08:07:38;8.16;86.43
72128;DHT22;60000;51.030;7.024;2023-04-24T08:10:04;8.18;86.04
72128;DHT22;60000;51.030;7.024;2023-04-24T08:12:30;8.13;85.38
72128;DHT22;60000;51.030;7.024;2023-04-24T08:14:55;8.11;86.02
72128;DHT22;60000;51.030;7.024;2023-04-24T08:17:20;8.06;86.05
72128;DHT22;60000;51.030;7.024;2023-04-24T08:19:46;7.99;86.13
72128;DHT22;60000;51.030;7.024;2023-04-24T08:22:14;7.92;86.17
72128;DHT22;60000;51.030;7.024;2023-04-24T08:24:40;7.92;86.68
72128;DHT22;60000;51.030;7.024;2023-04-24T08:27:05;7.85;86.17
72128;DHT22;60000;51.030;7.024;2023-04-24T08:29:30;7.82;86.52
72128;DHT22;60000;51.030;7.024;2023-04-24T08:31:56;7.75;85.70
72128;DHT22;60000;51.030;7.024;2023-04-24T08:34:21;7.73;86.34
72128;DHT22;60000;51.030;7.024;2023-04-24T08:36:47;7.69;86.36
72128;DHT22;60000;51.030;7.024;2023-04-24T08:39:12;7.64;86.22
72128;DHT22;60000;51.030;7.024;2023-04-24T08:41:41;7.66;86.62
72128;DHT22;60000;51.030;7.024;2023-04-24T08:44:09;7.59;86.52
72128;DHT22;60000;51.030;7.024;2023-04-24T08:46:35;7.61;87.01
72128;DHT22;60000;51.030;7.024;2023-04-24T08:49:02;7.57;86.65
72128;DHT22;60000;51.030;7.024;2023-04-24T08:51:29;7.60;86.79
72128;DHT22;60000;51.030;7.024;2023-04-24T08:53:55;7.57;87.13
72128;DHT22;60000;51.030;7.024;2023-04-24T08:56:22;7.63;87.06
72128;DHT22;60000;51.030;7.024;2023-04-24T08:58:50;7.64;87.25
72128;DHT22;60000;51.030;7.024;2023-04-24T09:01:15;7.66;87.66
72128;DHT22;60000;51.030;7.024;2023-04-24T09:03:41;7.67;87.82
72128;DHT22;60000;51.030;7.024;2023-04-24T09:06:08;7.70;87.85
72128;DHT22;60000;51.030;7.024;2023-04-24T09:08:35;7.77;87.40
72128;DHT22;60000;51.030;7.024;2023-04-24T09:11:01;7.81;87.01
72128;DHT22;60000;51.030;7.024;2023-04-24T09:13:28;7.81;87.74
72128;DHT22;60000;51.030;7.024;2023-04-24T09:15:55;7.82;87.98
72128;DHT22;60000;51.030;7.024;2023-04-24T09:18:22;7.84;88.35
72128;DHT22;60000;51.030;7.024;2023-04-24T09:20:58;7.84;87.78
72128;DHT22;60000;51.030;7.024;2023-04-24T09:23:29;7.90;87.78
72128;DHT22;60000;51.030;7.024;2023-04-24T09:25:55;7.95;87.00
72128;DHT22;60000;51.030;7.024;2023-04-24T09:28:25;7.91;87.11
72128;DHT22;60000;51.030;7.024;2023-04-24T09:31:18;7.94;87.62
72128;DHT22;60000;51.030;7.024;2023-04-24T09:34:04;7.97;87.61
72128;DHT22;60000;51.030;7.024;2023-04-24T09:36:36;7.94;87.14
72128;DHT22;60000;51.030;7.024;2023-04-24T09:39:05;7.95;86.39
72128;DHT22;60000;51.030;7.024;2023-04-24T09:41:32;7.97;87.11
72128;DHT22;60000;51.030;7.024;2023-04-24T09:44:11;8.01;87.24
72128;DHT22;60000;51.030;7.024;2023-04-24T09:46:37;8.02;87.58
72128;DHT22;60000;51.030;7.024;2023-04-24T09:49:10;8.02;87.62
72128;DHT22;60000;51.030;7.024;2023-04-24T09:51:37;8.06;87.25
72128;DHT22;60000;51.030;7.024;2023-04-24T09:54:04;8.12;87.61
72128;DHT22;60000;51.030;7.024;2023-04-24T09:56:32;8.13;87.77
72128;DHT22;60000;51.030;7.024;2023-04-24T09:59:05;8.15;88.00
72128;DHT22;60000;51.030;7.024;2023-04-24T10:01:31;8.21;88.28
72128;DHT22;60000;51.030;7.024;2023-04-24T10:03:57;8.28;88.54
72128;DHT22;60000;51.030;7.024;2023-04-24T10:06:23;8.33;88.33
72128;DHT22;60000;51.030;7.024;2023-04-24T10:08:55;8.41;87.97
72128;DHT22;60000;51.030;7.024;2023-04-24T10:11:24;8.46;88.28
72128;DHT22;60000;51.030;7.024;2023-04-24T10:13:51;8.54;88.49
72128;DHT22;60000;51.030;7.024;2023-04-24T10:16:17;8.63;87.59
72128;DHT22;60000;51.030;7.024;2023-04-24T10:18:43;8.70;87.57
72128;DHT22;60000;51.030;7.024;2023-04-24T10:21:08;8.76;87.90
72128;DHT22;60000;51.030;7.024;2023-04-24T10:23:34;8.85;88.41
72128;DHT22;60000;51.030;7.024;2023-04-24T10:26:01;8.94;88.07
72128;DHT22;60000;51.030;7.024;2023-04-24T10:28:27;9.04;88.11
72128;DHT22;60000;51.030;7.024;2023-04-24T10:30:54;9.11;86.80
72128;DHT22;60000;51.030;7.024;2023-04-24T10:33:21;9.21;86.97
72128;DHT22;60000;51.030;7.024;2023-04-24T10:35:49;9.39;86.85
72128;DHT22;60000;51.030;7.024;2023-04-24T10:38:22;9.48;85.28
72128;DHT22;60000;51.030;7.024;2023-04-24T10:40:49;9.46;84.44
72128;DHT22;60000;51.030;7.024;2023-04-24T10:43:17;9.51;84.95
72128;DHT22;60000;51.030;7.024;2023-04-24T10:46:00;9.56;85.51
72128;DHT22;60000;51.030;7.024;2023-04-24T10:48:26;9.49;85.08
72128;DHT22;60000;51.030;7.024;2023-04-24T10:50:52;9.55;85.16
72128;DHT22;60000;51.030;7.024;2023-04-24T10:53:24;9.53;83.40
72128;DHT22;60000;51.030;7.024;2023-04-24T10:56:06;9.52;84.08
72128;DHT22;60000;51.030;7.024;2023-04-24T11:01:05;9.53;83.31
72128;DHT22;60000;51.030;7.024;2023-04-24T11:03:34;9.52;83.88
72128;DHT22;60000;51.030;7.024;2023-04-24T11:06:08;9.48;82.99
72128;DHT22;60000;51.030;7.024;2023-04-24T11:08:47;9.45;82.32
72128;DHT22;60000;51.030;7.024;2023-04-24T11:11:18;9.41;82.64
72128;DHT22;60000;51.030;7.024;2023-04-24T11:21:31;9.34;82.61
72128;DHT22;60000;51.030;7.024;2023-04-24T11:23:57;9.32;82.41
72128;DHT22;60000;51.030;7.024;2023-04-24T11:26:22;9.31;82.28
72128;DHT22;60000;51.030;7.024;2023-04-24T11:29:06;9.42;83.09
72128;DHT22;60000;51.030;7.024;2023-04-24T11:31:40;9.60;82.55
72128;DHT22;60000;51.030;7.024;2023-04-24T11:36:34;10.18;83.65
72128;DHT22;60000;51.030;7.024;2023-04-24T11:39:00;10.45;81.89
72128;DHT22;60000;51.030;7.024;2023-04-24T11:41:26;10.67;80.27
72128;DHT22;60000;51.030;7.024;2023-04-24T11:43:52;10.76;79.08
72128;DHT22;60000;51.030;7.024;2023-04-24T11:46:20;10.80;78.13
72128;DHT22;60000;51.030;7.024;2023-04-24T11:48:46;10.86;78.00
72128;DHT22;60000;51.030;7.024;2023-04-24T11:51:12;10.93;77.99
72128;DHT22;60000;51.030;7.024;2023-04-24T11:53:38;11.02;77.41
72128;DHT22;60000;51.030;7.024;2023-04-24T11:56:04;11.06;76.38
72128;DHT22;60000;51.030;7.024;2023-04-24T11:58:40;11.03;76.76
72128;DHT22;60000;51.030;7.024;2023-04-24T12:01:05;11.15;77.29
72128;DHT22;60000;51.030;7.024;2023-04-24T12:03:31;11.10;75.42
72128;DHT22;60000;51.030;7.024;2023-04-24T12:08:33;11.15;74.26
72128;DHT22;60000;51.030;7.024;2023-04-24T12:11:00;11.19;75.12
72128;DHT22;60000;51.030;7.024;2023-04-24T12:13:26;11.12;75.01
72128;DHT22;60000;51.030;7.024;2023-04-24T12:15:51;10.99;73.81
72128;DHT22;60000;51.030;7.024;2023-04-24T12:18:17;10.92;73.50
72128;DHT22;60000;51.030;7.024;2023-04-24T12:20:42;10.79;73.99
72128;DHT22;60000;51.030;7.024;2023-04-24T12:23:08;10.68;74.15
72128;DHT22;60000;51.030;7.024;2023-04-24T12:25:33;10.62;74.05
72128;DHT22;60000;51.030;7.024;2023-04-24T12:30:38;10.61;74.01
72128;DHT22;60000;51.030;7.024;2023-04-24T12:33:03;10.49;72.61
72128;DHT22;60000;51.030;7.024;2023-04-24T12:35:30;10.45;73.45
72128;DHT22;60000;51.030;7.024;2023-04-24T12:38:15;10.52;72.57
72128;DHT22;60000;51.030;7.024;2023-04-24T12:40:41;10.51;72.56
72128;DHT22;60000;51.030;7.024;2023-04-24T12:43:19;10.58;72.88
72128;DHT22;60000;51.030;7.024;2023-04-24T12:45:48;10.79;72.46
72128;DHT22;60000;51.030;7.024;2023-04-24T12:48:13;11.08;71.59
72128;DHT22;60000;51.030;7.024;2023-04-24T12:50:39;11.38;71.87
72128;DHT22;60000;51.030;7.024;2023-04-24T12:53:06;11.61;68.65
72128;DHT22;60000;51.030;7.024;2023-04-24T12:55:31;11.70;67.91
72128;DHT22;60000;51.030;7.024;2023-04-24T12:57:56;11.77;66.53
72128;DHT22;60000;51.030;7.024;2023-04-24T13:00:23;11.87;67.23
72128;DHT22;60000;51.030;7.024;2023-04-24T13:02:49;12.01;67.55
72128;DHT22;60000;51.030;7.024;2023-04-24T13:05:14;12.24;66.18
72128;DHT22;60000;51.030;7.024;2023-04-24T13:07:40;12.42;63.98
72128;DHT22;60000;51.030;7.024;2023-04-24T13:10:06;12.59;62.20
72128;DHT22;60000;51.030;7.024;2023-04-24T13:12:32;12.57;62.24
72128;DHT22;60000;51.030;7.024;2023-04-24T13:14:58;12.60;62.22
72128;DHT22;60000;51.030;7.024;2023-04-24T13:17:24;12.84;61.92
72128;DHT22;60000;51.030;7.024;2023-04-24T13:19:50;12.95;61.40
72128;DHT22;60000;51.030;7.024;2023-04-24T13:22:16;12.94;61.67
72128;DHT22;60000;51.030;7.024;2023-04-24T13:24:42;12.93;60.32
72128;DHT22;60000;51.030;7.024;2023-04-24T13:27:08;12.79;59.19
72128;DHT22;60000;51.030;7.024;2023-04-24T13:29:34;12.66;60.68
72128;DHT22;60000;51.030;7.024;2023-04-24T13:31:59;12.56;60.62
72128;DHT22;60000;51.030;7.024;2023-04-24T13:34:25;12.53;60.50
72128;DHT22;60000;51.030;7.024;2023-04-24T13:36:53;12.59;60.75
72128;DHT22;60000;51.030;7.024;2023-04-24T13:39:18;12.76;60.56
72128;DHT22;60000;51.030;7.024;2023-04-24T13:41:44;13.21;61.85
72128;DHT22;60000;51.030;7.024;2023-04-24T13:44:10;13.35;61.08
72128;DHT22;60000;51.030;7.024;2023-04-24T13:46:35;13.32;59.50
72128;DHT22;60000;51.030;7.024;2023-04-24T13:49:02;13.32;59.82
72128;DHT22;60000;51.030;7.024;2023-04-24T13:51:28;13.25;59.20
72128;DHT22;60000;51.030;7.024;2023-04-24T13:53:54;13.10;60.09
72128;DHT22;60000;51.030;7.024;2023-04-24T13:56:20;13.01;60.50
72128;DHT22;60000;51.030;7.024;2023-04-24T13:58:46;12.91;60.82
72128;DHT22;60000;51.030;7.024;2023-04-24T14:01:12;12.72;59.27
72128;DHT22;60000;51.030;7.024;2023-04-24T14:03:37;12.50;59.85
72128;DHT22;60000;51.030;7.024;2023-04-24T14:06:03;12.29;59.42
72128;DHT22;60000;51.030;7.024;2023-04-24T14:08:28;12.14;59.81
72128;DHT22;60000;51.030;7.024;2023-04-24T14:10:53;12.08;60.80
72128;DHT22;60000;51.030;7.024;2023-04-24T14:13:19;12.33;61.41
72128;DHT22;60000;51.030;7.024;2023-04-24T14:15:44;12.45;60.91
72128;DHT22;60000;51.030;7.024;2023-04-24T14:18:10;12.61;61.46
72128;DHT22;60000;51.030;7.024;2023-04-24T14:20:35;12.80;60.19
72128;DHT22;60000;51.030;7.024;2023-04-24T14:23:01;12.88;58.35
72128;DHT22;60000;51.030;7.024;2023-04-24T14:25:26;12.88;59.18
72128;DHT22;60000;51.030;7.024;2023-04-24T14:27:51;12.94;59.83
72128;DHT22;60000;51.030;7.024;2023-04-24T14:30:17;13.00;58.97
72128;DHT22;60000;51.030;7.024;2023-04-24T14:32:43;13.01;57.71
72128;DHT22;60000;51.030;7.024;2023-04-24T14:35:08;13.12;58.10
72128;DHT22;60000;51.030;7.024;2023-04-24T14:37:34;12.95;56.86
72128;DHT22;60000;51.030;7.024;2023-04-24T14:40:00;13.04;58.72
72128;DHT22;60000;51.030;7.024;2023-04-24T14:42:26;13.04;59.41
72128;DHT22;60000;51.030;7.024;2023-04-24T14:44:51;13.10;57.36
72128;DHT22;60000;51.030;7.024;2023-04-24T14:47:17;13.16;57.72
72128;DHT22;60000;51.030;7.024;2023-04-24T14:49:43;13.16;58.03
72128;DHT22;60000;51.030;7.024;2023-04-24T14:52:09;13.10;58.70
72128;DHT22;60000;51.030;7.024;2023-04-24T14:54:34;13.05;58.71
72128;DHT22;60000;51.030;7.024;2023-04-24T14:57:00;13.05;60.18
72128;DHT22;60000;51.030;7.024;2023-04-24T14:59:27;13.08;59.64
72128;DHT22;60000;51.030;7.024;2023-04-24T15:01:52;13.04;59.36
72128;DHT22;60000;51.030;7.024;2023-04-24T15:04:21;13.03;58.31
72128;DHT22;60000;51.030;7.024;2023-04-24T15:06:47;12.95;56.37
72128;DHT22;60000;51.030;7.024;2023-04-24T15:09:12;12.91;56.54
72128;DHT22;60000;51.030;7.024;2023-04-24T15:11:37;12.88;55.78
72128;DHT22;60000;51.030;7.024;2023-04-24T15:14:03;12.90;56.70
72128;DHT22;60000;51.030;7.024;2023-04-24T15:16:28;12.93;56.16
72128;DHT22;60000;51.030;7.024;2023-04-24T15:18:53;13.03;56.27
72128;DHT22;60000;51.030;7.024;2023-04-24T15:21:19;13.01;56.54
72128;DHT22;60000;51.030;7.024;2023-04-24T15:23:44;13.22;57.28
72128;DHT22;60000;51.030;7.024;2023-04-24T15:26:10;13.36;55.87
72128;DHT22;60000;51.030;7.024;2023-04-24T15:28:36;13.42;54.64
72128;DHT22;60000;51.030;7.024;2023-04-24T15:31:01;13.46;55.30
72128;DHT22;60000;51.030;7.024;2023-04-24T15:33:26;13.39;54.83
72128;DHT22;60000;51.030;7.024;2023-04-24T15:35:52;13.26;54.72
72128;DHT22;60000;51.030;7.024;2023-04-24T15:38:17;13.31;55.58
72128;DHT22;60000;51.030;7.024;2023-04-24T15:40:42;13.34;54.87
72128;DHT22;60000;51.030;7.024;2023-04-24T15:43:07;13.45;55.43
72128;DHT22;60000;51.030;7.024;2023-04-24T15:45:33;13.29;54.95
72128;DHT22;60000;51.030;7.024;2023-04-24T15:47:58;13.24;55.86
72128;DHT22;60000;51.030;7.024;2023-04-24T15:50:24;13.25;56.16
72128;DHT22;60000;51.030;7.024;2023-04-24T15:52:49;13.21;55.23